sensor_id;sensor_type;location;lat;lon;timestamp;P1;durP1;ratioP1;P2;durP2;ratioP2
43919;SDS011;29578;51.946;5.874;2022-08-21T00:02:13;0.47;;;0.47;;
43919;SDS011;29578;51.946;5.874;2022-08-21T00:04:41;0.47;;;0.40;;
43919;SDS011;29578;51.946;5.874;2022-08-21T00:07:07;0.47;;;0.43;;
43919;SDS011;29578;51.946;5.874;2022-08-21T00:09:32;0.50;;;0.43;;
43919;SDS011;29578;51.946;5.874;2022-08-21T00:11:58;0.47;;;0.40;;
43919;SDS011;29578;51.946;5.874;2022-08-21T00:14:24;0.60;;;0.50;;
43919;SDS011;29578;51.946;5.874;2022-08-21T00:16:50;0.73;;;0.60;;
43919;SDS011;29578;51.946;5.874;2022-08-21T00:19:16;0.60;;;0.50;;
43919;SDS011;29578;51.946;5.874;2022-08-21T00:21:41;0.80;;;0.52;;
43919;SDS011;29578;51.946;5.874;2022-08-21T00:24:07;0.77;;;0.45;;
43919;SDS011;29578;51.946;5.874;2022-08-21T00:26:33;0.90;;;0.50;;
43919;SDS011;29578;51.946;5.874;2022-08-21T00:28:59;0.50;;;0.50;;
43919;SDS011;29578;51.946;5.874;2022-08-21T00:31:25;1.38;;;0.60;;
43919;SDS011;29578;51.946;5.874;2022-08-21T00:33:51;0.50;;;0.50;;
43919;SDS011;29578;51.946;5.874;2022-08-21T00:36:16;0.88;;;0.60;;
43919;SDS011;29578;51.946;5.874;2022-08-21T00:38:42;0.50;;;0.50;;
43919;SDS011;29578;51.946;5.874;2022-08-21T00:41:09;1.08;;;0.55;;
43919;SDS011;29578;51.946;5.874;2022-08-21T00:43:36;0.60;;;0.50;;
43919;SDS011;29578;51.946;5.874;2022-08-21T00:46:03;0.40;;;0.40;;
43919;SDS011;29578;51.946;5.874;2022-08-21T00:48:31;0.85;;;0.65;;
43919;SDS011;29578;51.946;5.874;2022-08-21T00:50:59;0.43;;;0.40;;
43919;SDS011;29578;51.946;5.874;2022-08-21T00:53:28;0.60;;;0.50;;
43919;SDS011;29578;51.946;5.874;2022-08-21T00:55:56;1.02;;;0.60;;
43919;SDS011;29578;51.946;5.874;2022-08-21T00:58:23;0.30;;;0.30;;
43919;SDS011;29578;51.946;5.874;2022-08-21T01:00:51;0.60;;;0.60;;
43919;SDS011;29578;51.946;5.874;2022-08-21T01:03:19;0.73;;;0.40;;
43919;SDS011;29578;51.946;5.874;2022-08-21T01:05:47;0.63;;;0.50;;
43919;SDS011;29578;51.946;5.874;2022-08-21T01:08:13;0.85;;;0.70;;
43919;SDS011;29578;51.946;5.874;2022-08-21T01:10:42;0.95;;;0.60;;
43919;SDS011;29578;51.946;5.874;2022-08-21T01:13:09;0.60;;;0.60;;
43919;SDS011;29578;51.946;5.874;2022-08-21T01:15:39;1.38;;;0.70;;
43919;SDS011;29578;51.946;5.874;2022-08-21T01:18:08;0.65;;;0.60;;
43919;SDS011;29578;51.946;5.874;2022-08-21T01:20:36;0.80;;;0.60;;
43919;SDS011;29578;51.946;5.874;2022-08-21T01:23:04;1.10;;;0.70;;
43919;SDS011;29578;51.946;5.874;2022-08-21T01:25:30;0.82;;;0.73;;
43919;SDS011;29578;51.946;5.874;2022-08-21T01:27:57;0.57;;;0.52;;
43919;SDS011;29578;51.946;5.874;2022-08-21T01:30:29;0.73;;;0.60;;
43919;SDS011;29578;51.946;5.874;2022-08-21T01:32:59;0.70;;;0.50;;
43919;SDS011;29578;51.946;5.874;2022-08-21T01:35:24;0.60;;;0.60;;
43919;SDS011;29578;51.946;5.874;2022-08-21T01:37:50;1.20;;;0.70;;
43919;SDS011;29578;51.946;5.874;2022-08-21T01:40:16;0.80;;;0.60;;
43919;SDS011;29578;51.946;5.874;2022-08-21T01:42:44;0.80;;;0.70;;
43919;SDS011;29578;51.946;5.874;2022-08-21T01:45:11;0.60;;;0.60;;
43919;SDS011;29578;51.946;5.874;2022-08-21T01:47:38;1.17;;;0.85;;
43919;SDS011;29578;51.946;5.874;2022-08-21T01:50:05;0.50;;;0.50;;
43919;SDS011;29578;51.946;5.874;2022-08-21T01:52:33;0.60;;;0.50;;
43919;SDS011;29578;51.946;5.874;2022-08-21T01:54:59;0.63;;;0.60;;
43919;SDS011;29578;51.946;5.874;2022-08-21T01:57:25;0.98;;;0.60;;
43919;SDS011;29578;51.946;5.874;2022-08-21T01:59:51;1.17;;;0.63;;
43919;SDS011;29578;51.946;5.874;2022-08-21T02:02:17;0.30;;;0.30;;
43919;SDS011;29578;51.946;5.874;2022-08-21T02:04:43;1.05;;;0.75;;
43919;SDS011;29578;51.946;5.874;2022-08-21T02:07:09;0.65;;;0.60;;
43919;SDS011;29578;51.946;5.874;2022-08-21T02:09:34;0.40;;;0.40;;
43919;SDS011;29578;51.946;5.874;2022-08-21T02:12:00;0.40;;;0.40;;
43919;SDS011;29578;51.946;5.874;2022-08-21T02:14:26;0.70;;;0.60;;
43919;SDS011;29578;51.946;5.874;2022-08-21T02:16:52;0.50;;;0.50;;
43919;SDS011;29578;51.946;5.874;2022-08-21T02:19:18;0.47;;;0.47;;
43919;SDS011;29578;51.946;5.874;2022-08-21T02:21:43;0.68;;;0.60;;
43919;SDS011;29578;51.946;5.874;2022-08-21T02:24:10;0.60;;;0.60;;
43919;SDS011;29578;51.946;5.874;2022-08-21T02:26:37;0.60;;;0.60;;
43919;SDS011;29578;51.946;5.874;2022-08-21T02:29:04;0.77;;;0.40;;
43919;SDS011;29578;51.946;5.874;2022-08-21T02:31:30;0.55;;;0.50;;
43919;SDS011;29578;51.946;5.874;2022-08-21T02:33:56;0.45;;;0.45;;
43919;SDS011;29578;51.946;5.874;2022-08-21T02:36:22;0.50;;;0.50;;
43919;SDS011;29578;51.946;5.874;2022-08-21T02:38:48;0.73;;;0.65;;
43919;SDS011;29578;51.946;5.874;2022-08-21T02:41:15;0.55;;;0.50;;
43919;SDS011;29578;51.946;5.874;2022-08-21T02:43:43;0.60;;;0.60;;
43919;SDS011;29578;51.946;5.874;2022-08-21T02:46:09;0.70;;;0.60;;
43919;SDS011;29578;51.946;5.874;2022-08-21T02:48:38;0.50;;;0.50;;
43919;SDS011;29578;51.946;5.874;2022-08-21T02:51:07;0.57;;;0.57;;
43919;SDS011;29578;51.946;5.874;2022-08-21T02:53:37;0.90;;;0.75;;
43919;SDS011;29578;51.946;5.874;2022-08-21T02:56:04;0.88;;;0.52;;
43919;SDS011;29578;51.946;5.874;2022-08-21T02:58:34;0.90;;;0.60;;
43919;SDS011;29578;51.946;5.874;2022-08-21T03:01:03;0.95;;;0.73;;
43919;SDS011;29578;51.946;5.874;2022-08-21T03:03:29;0.60;;;0.60;;
43919;SDS011;29578;51.946;5.874;2022-08-21T03:05:55;0.50;;;0.50;;
43919;SDS011;29578;51.946;5.874;2022-08-21T03:08:22;0.50;;;0.50;;
43919;SDS011;29578;51.946;5.874;2022-08-21T03:10:51;0.70;;;0.60;;
43919;SDS011;29578;51.946;5.874;2022-08-21T03:13:18;0.90;;;0.60;;
43919;SDS011;29578;51.946;5.874;2022-08-21T03:15:45;0.88;;;0.70;;
43919;SDS011;29578;51.946;5.874;2022-08-21T03:18:12;0.75;;;0.70;;
43919;SDS011;29578;51.946;5.874;2022-08-21T03:20:39;0.63;;;0.57;;
43919;SDS011;29578;51.946;5.874;2022-08-21T03:23:06;0.85;;;0.63;;
43919;SDS011;29578;51.946;5.874;2022-08-21T03:25:33;0.68;;;0.50;;
43919;SDS011;29578;51.946;5.874;2022-08-21T03:28:00;0.65;;;0.65;;
43919;SDS011;29578;51.946;5.874;2022-08-21T03:30:28;0.98;;;0.63;;
43919;SDS011;29578;51.946;5.874;2022-08-21T03:32:56;0.40;;;0.40;;
43919;SDS011;29578;51.946;5.874;2022-08-21T03:35:23;0.88;;;0.73;;
43919;SDS011;29578;51.946;5.874;2022-08-21T03:37:50;0.60;;;0.60;;
43919;SDS011;29578;51.946;5.874;2022-08-21T03:40:16;0.52;;;0.50;;
43919;SDS011;29578;51.946;5.874;2022-08-21T03:42:44;0.57;;;0.52;;
43919;SDS011;29578;51.946;5.874;2022-08-21T03:45:12;0.70;;;0.50;;
43919;SDS011;29578;51.946;5.874;2022-08-21T03:47:49;0.98;;;0.50;;
43919;SDS011;29578;51.946;5.874;2022-08-21T03:50:25;1.13;;;0.60;;
43919;SDS011;29578;51.946;5.874;2022-08-21T03:52:53;0.47;;;0.47;;
43919;SDS011;29578;51.946;5.874;2022-08-21T03:55:18;0.40;;;0.40;;
43919;SDS011;29578;51.946;5.874;2022-08-21T03:57:44;0.60;;;0.60;;
43919;SDS011;29578;51.946;5.874;2022-08-21T04:00:11;1.05;;;0.60;;
43919;SDS011;29578;51.946;5.874;2022-08-21T04:02:38;0.85;;;0.75;;
43919;SDS011;29578;51.946;5.874;2022-08-21T04:05:05;2.28;;;0.75;;
43919;SDS011;29578;51.946;5.874;2022-08-21T04:07:31;0.57;;;0.57;;
43919;SDS011;29578;51.946;5.874;2022-08-21T04:09:57;0.70;;;0.65;;
43919;SDS011;29578;51.946;5.874;2022-08-21T04:12:23;1.10;;;0.75;;
43919;SDS011;29578;51.946;5.874;2022-08-21T04:14:49;0.98;;;0.80;;
43919;SDS011;29578;51.946;5.874;2022-08-21T04:17:16;0.93;;;0.70;;
43919;SDS011;29578;51.946;5.874;2022-08-21T04:19:43;1.08;;;0.45;;
43919;SDS011;29578;51.946;5.874;2022-08-21T04:22:09;0.60;;;0.60;;
43919;SDS011;29578;51.946;5.874;2022-08-21T04:24:35;0.50;;;0.50;;
43919;SDS011;29578;51.946;5.874;2022-08-21T04:27:01;0.80;;;0.60;;
43919;SDS011;29578;51.946;5.874;2022-08-21T04:29:26;1.13;;;0.70;;
43919;SDS011;29578;51.946;5.874;2022-08-21T04:31:52;0.60;;;0.60;;
43919;SDS011;29578;51.946;5.874;2022-08-21T04:34:18;0.60;;;0.60;;
43919;SDS011;29578;51.946;5.874;2022-08-21T04:36:44;0.65;;;0.60;;
43919;SDS011;29578;51.946;5.874;2022-08-21T04:39:10;0.65;;;0.60;;
43919;SDS011;29578;51.946;5.874;2022-08-21T04:41:36;0.70;;;0.68;;
43919;SDS011;29578;51.946;5.874;2022-08-21T04:44:02;1.27;;;0.60;;
43919;SDS011;29578;51.946;5.874;2022-08-21T04:46:28;0.68;;;0.68;;
43919;SDS011;29578;51.946;5.874;2022-08-21T04:48:54;0.77;;;0.60;;
43919;SDS011;29578;51.946;5.874;2022-08-21T04:51:24;0.45;;;0.45;;
43919;SDS011;29578;51.946;5.874;2022-08-21T04:53:54;0.80;;;0.50;;
43919;SDS011;29578;51.946;5.874;2022-08-21T04:56:28;0.68;;;0.60;;
43919;SDS011;29578;51.946;5.874;2022-08-21T05:01:25;0.50;;;0.50;;
43919;SDS011;29578;51.946;5.874;2022-08-21T05:03:54;0.77;;;0.50;;
43919;SDS011;29578;51.946;5.874;2022-08-21T05:06:23;0.57;;;0.57;;
43919;SDS011;29578;51.946;5.874;2022-08-21T05:08:50;0.50;;;0.50;;
43919;SDS011;29578;51.946;5.874;2022-08-21T05:11:18;1.48;;;0.50;;
43919;SDS011;29578;51.946;5.874;2022-08-21T05:13:45;0.70;;;0.63;;
43919;SDS011;29578;51.946;5.874;2022-08-21T05:16:11;0.47;;;0.45;;
43919;SDS011;29578;51.946;5.874;2022-08-21T05:18:37;0.50;;;0.50;;
43919;SDS011;29578;51.946;5.874;2022-08-21T05:21:03;1.27;;;0.70;;
43919;SDS011;29578;51.946;5.874;2022-08-21T05:23:29;0.60;;;0.60;;
43919;SDS011;29578;51.946;5.874;2022-08-21T05:25:55;0.80;;;0.70;;
43919;SDS011;29578;51.946;5.874;2022-08-21T05:28:21;0.73;;;0.70;;
43919;SDS011;29578;51.946;5.874;2022-08-21T05:30:48;0.60;;;0.60;;
43919;SDS011;29578;51.946;5.874;2022-08-21T05:33:14;0.70;;;0.70;;
43919;SDS011;29578;51.946;5.874;2022-08-21T05:35:40;0.55;;;0.55;;
43919;SDS011;29578;51.946;5.874;2022-08-21T05:38:06;0.70;;;0.68;;
43919;SDS011;29578;51.946;5.874;2022-08-21T05:40:32;0.40;;;0.40;;
43919;SDS011;29578;51.946;5.874;2022-08-21T05:42:58;0.50;;;0.50;;
43919;SDS011;29578;51.946;5.874;2022-08-21T05:45:28;0.68;;;0.60;;
43919;SDS011;29578;51.946;5.874;2022-08-21T05:50:21;0.93;;;0.80;;
43919;SDS011;29578;51.946;5.874;2022-08-21T05:52:47;0.70;;;0.60;;
43919;SDS011;29578;51.946;5.874;2022-08-21T05:55:13;0.80;;;0.65;;
43919;SDS011;29578;51.946;5.874;2022-08-21T05:57:39;1.13;;;0.90;;
43919;SDS011;29578;51.946;5.874;2022-08-21T06:00:07;1.13;;;0.82;;
43919;SDS011;29578;51.946;5.874;2022-08-21T06:02:37;0.95;;;0.90;;
43919;SDS011;29578;51.946;5.874;2022-08-21T06:05:04;1.08;;;0.90;;
43919;SDS011;29578;51.946;5.874;2022-08-21T06:07:29;1.75;;;1.10;;
43919;SDS011;29578;51.946;5.874;2022-08-21T06:09:56;0.77;;;0.77;;
43919;SDS011;29578;51.946;5.874;2022-08-21T06:12:21;1.50;;;0.88;;
43919;SDS011;29578;51.946;5.874;2022-08-21T06:14:47;0.90;;;0.90;;
43919;SDS011;29578;51.946;5.874;2022-08-21T06:17:13;1.23;;;0.80;;
43919;SDS011;29578;51.946;5.874;2022-08-21T06:19:40;0.70;;;0.70;;
43919;SDS011;29578;51.946;5.874;2022-08-21T06:22:06;1.67;;;1.00;;
43919;SDS011;29578;51.946;5.874;2022-08-21T06:24:32;1.23;;;1.00;;
43919;SDS011;29578;51.946;5.874;2022-08-21T06:27:03;1.13;;;0.90;;
43919;SDS011;29578;51.946;5.874;2022-08-21T06:29:30;1.30;;;0.90;;
43919;SDS011;29578;51.946;5.874;2022-08-21T06:31:55;1.63;;;1.20;;
43919;SDS011;29578;51.946;5.874;2022-08-21T06:34:21;1.63;;;1.02;;
43919;SDS011;29578;51.946;5.874;2022-08-21T06:36:47;1.00;;;0.90;;
43919;SDS011;29578;51.946;5.874;2022-08-21T06:39:12;2.47;;;1.13;;
43919;SDS011;29578;51.946;5.874;2022-08-21T06:41:38;0.88;;;0.73;;
43919;SDS011;29578;51.946;5.874;2022-08-21T06:44:04;0.77;;;0.65;;
43919;SDS011;29578;51.946;5.874;2022-08-21T06:46:30;1.35;;;0.85;;
43919;SDS011;29578;51.946;5.874;2022-08-21T06:48:56;1.02;;;0.55;;
43919;SDS011;29578;51.946;5.874;2022-08-21T06:51:22;0.95;;;0.85;;
43919;SDS011;29578;51.946;5.874;2022-08-21T06:53:50;1.42;;;1.02;;
43919;SDS011;29578;51.946;5.874;2022-08-21T06:56:16;1.10;;;0.75;;
43919;SDS011;29578;51.946;5.874;2022-08-21T06:58:42;1.15;;;0.90;;
43919;SDS011;29578;51.946;5.874;2022-08-21T07:01:07;0.90;;;0.90;;
43919;SDS011;29578;51.946;5.874;2022-08-21T07:03:35;1.15;;;1.00;;
43919;SDS011;29578;51.946;5.874;2022-08-21T07:06:02;1.67;;;1.00;;
43919;SDS011;29578;51.946;5.874;2022-08-21T07:08:29;0.90;;;0.77;;
43919;SDS011;29578;51.946;5.874;2022-08-21T07:10:56;1.00;;;0.82;;
43919;SDS011;29578;51.946;5.874;2022-08-21T07:13:23;1.83;;;1.00;;
43919;SDS011;29578;51.946;5.874;2022-08-21T07:15:49;1.42;;;0.90;;
43919;SDS011;29578;51.946;5.874;2022-08-21T07:18:15;1.38;;;0.90;;
43919;SDS011;29578;51.946;5.874;2022-08-21T07:20:42;1.10;;;0.82;;
43919;SDS011;29578;51.946;5.874;2022-08-21T07:23:09;1.10;;;0.88;;
43919;SDS011;29578;51.946;5.874;2022-08-21T07:25:38;0.63;;;0.63;;
43919;SDS011;29578;51.946;5.874;2022-08-21T07:28:04;0.68;;;0.68;;
43919;SDS011;29578;51.946;5.874;2022-08-21T07:30:31;0.80;;;0.80;;
43919;SDS011;29578;51.946;5.874;2022-08-21T07:32:57;1.58;;;0.93;;
43919;SDS011;29578;51.946;5.874;2022-08-21T07:35:23;0.90;;;0.90;;
43919;SDS011;29578;51.946;5.874;2022-08-21T07:37:53;1.48;;;1.17;;
43919;SDS011;29578;51.946;5.874;2022-08-21T07:40:18;1.67;;;1.20;;
43919;SDS011;29578;51.946;5.874;2022-08-21T07:42:46;2.17;;;1.15;;
43919;SDS011;29578;51.946;5.874;2022-08-21T07:45:16;3.58;;;1.15;;
43919;SDS011;29578;51.946;5.874;2022-08-21T07:47:43;2.55;;;1.00;;
43919;SDS011;29578;51.946;5.874;2022-08-21T07:50:12;1.40;;;0.82;;
43919;SDS011;29578;51.946;5.874;2022-08-21T07:52:39;1.48;;;0.98;;
43919;SDS011;29578;51.946;5.874;2022-08-21T07:55:06;1.40;;;0.82;;
43919;SDS011;29578;51.946;5.874;2022-08-21T07:57:32;1.35;;;1.08;;
43919;SDS011;29578;51.946;5.874;2022-08-21T07:59:58;1.10;;;0.95;;
43919;SDS011;29578;51.946;5.874;2022-08-21T08:02:25;1.83;;;0.95;;
43919;SDS011;29578;51.946;5.874;2022-08-21T08:04:53;0.75;;;0.70;;
43919;SDS011;29578;51.946;5.874;2022-08-21T08:07:19;1.40;;;0.90;;
43919;SDS011;29578;51.946;5.874;2022-08-21T08:09:45;0.95;;;0.82;;
43919;SDS011;29578;51.946;5.874;2022-08-21T08:12:11;2.05;;;0.95;;
43919;SDS011;29578;51.946;5.874;2022-08-21T08:14:37;1.55;;;0.90;;
43919;SDS011;29578;51.946;5.874;2022-08-21T08:17:03;0.95;;;0.75;;
43919;SDS011;29578;51.946;5.874;2022-08-21T08:19:29;1.95;;;0.90;;
43919;SDS011;29578;51.946;5.874;2022-08-21T08:21:55;1.90;;;1.10;;
43919;SDS011;29578;51.946;5.874;2022-08-21T08:24:21;2.25;;;1.10;;
43919;SDS011;29578;51.946;5.874;2022-08-21T08:26:47;2.80;;;1.00;;
43919;SDS011;29578;51.946;5.874;2022-08-21T08:29:13;1.50;;;0.80;;
43919;SDS011;29578;51.946;5.874;2022-08-21T08:31:39;2.13;;;0.90;;
43919;SDS011;29578;51.946;5.874;2022-08-21T08:34:04;1.75;;;0.80;;
43919;SDS011;29578;51.946;5.874;2022-08-21T08:36:32;2.67;;;1.13;;
43919;SDS011;29578;51.946;5.874;2022-08-21T08:39:01;1.90;;;1.17;;
43919;SDS011;29578;51.946;5.874;2022-08-21T08:41:28;2.20;;;1.20;;
43919;SDS011;29578;51.946;5.874;2022-08-21T08:43:58;1.10;;;0.60;;
43919;SDS011;29578;51.946;5.874;2022-08-21T08:46:33;1.08;;;0.85;;
43919;SDS011;29578;51.946;5.874;2022-08-21T08:49:06;1.52;;;0.82;;
43919;SDS011;29578;51.946;5.874;2022-08-21T08:51:49;1.13;;;0.82;;
43919;SDS011;29578;51.946;5.874;2022-08-21T08:57:07;1.33;;;0.93;;
43919;SDS011;29578;51.946;5.874;2022-08-21T08:59:41;1.20;;;0.73;;
43919;SDS011;29578;51.946;5.874;2022-08-21T09:02:10;1.67;;;0.85;;
43919;SDS011;29578;51.946;5.874;2022-08-21T09:04:37;1.20;;;0.80;;
43919;SDS011;29578;51.946;5.874;2022-08-21T09:10:09;2.22;;;0.80;;
43919;SDS011;29578;51.946;5.874;2022-08-21T09:12:39;0.95;;;0.60;;
43919;SDS011;29578;51.946;5.874;2022-08-21T09:15:25;1.27;;;0.63;;
43919;SDS011;29578;51.946;5.874;2022-08-21T09:18:17;2.05;;;0.90;;
43919;SDS011;29578;51.946;5.874;2022-08-21T09:20:57;0.80;;;0.80;;
43919;SDS011;29578;51.946;5.874;2022-08-21T09:23:45;4.07;;;1.00;;
43919;SDS011;29578;51.946;5.874;2022-08-21T09:26:24;0.88;;;0.73;;
43919;SDS011;29578;51.946;5.874;2022-08-21T09:28:56;0.75;;;0.60;;
43919;SDS011;29578;51.946;5.874;2022-08-21T09:31:25;1.10;;;0.80;;
43919;SDS011;29578;51.946;5.874;2022-08-21T09:36:36;1.65;;;0.70;;
43919;SDS011;29578;51.946;5.874;2022-08-21T09:39:06;0.80;;;0.70;;
43919;SDS011;29578;51.946;5.874;2022-08-21T09:41:33;1.40;;;0.75;;
43919;SDS011;29578;51.946;5.874;2022-08-21T09:44:01;1.35;;;0.70;;
43919;SDS011;29578;51.946;5.874;2022-08-21T09:46:28;1.88;;;0.90;;
43919;SDS011;29578;51.946;5.874;2022-08-21T09:48:54;1.10;;;0.70;;
43919;SDS011;29578;51.946;5.874;2022-08-21T09:51:23;2.53;;;1.00;;
43919;SDS011;29578;51.946;5.874;2022-08-21T09:54:12;1.30;;;0.50;;
43919;SDS011;29578;51.946;5.874;2022-08-21T09:56:58;1.15;;;0.45;;
43919;SDS011;29578;51.946;5.874;2022-08-21T09:59:44;0.77;;;0.50;;
43919;SDS011;29578;51.946;5.874;2022-08-21T10:02:20;0.82;;;0.60;;
43919;SDS011;29578;51.946;5.874;2022-08-21T10:04:52;0.43;;;0.40;;
43919;SDS011;29578;51.946;5.874;2022-08-21T10:07:22;1.38;;;0.65;;
43919;SDS011;29578;51.946;5.874;2022-08-21T10:10:07;0.68;;;0.60;;
43919;SDS011;29578;51.946;5.874;2022-08-21T10:13:01;0.47;;;0.40;;
43919;SDS011;29578;51.946;5.874;2022-08-21T10:15:42;1.27;;;0.70;;
43919;SDS011;29578;51.946;5.874;2022-08-21T10:18:26;0.50;;;0.50;;
43919;SDS011;29578;51.946;5.874;2022-08-21T10:21:02;0.90;;;0.63;;
43919;SDS011;29578;51.946;5.874;2022-08-21T10:26:41;1.70;;;0.47;;
43919;SDS011;29578;51.946;5.874;2022-08-21T10:29:24;0.85;;;0.63;;
43919;SDS011;29578;51.946;5.874;2022-08-21T10:32:09;1.58;;;0.70;;
43919;SDS011;29578;51.946;5.874;2022-08-21T10:34:52;0.70;;;0.47;;
43919;SDS011;29578;51.946;5.874;2022-08-21T10:37:41;1.08;;;0.60;;
43919;SDS011;29578;51.946;5.874;2022-08-21T10:40:37;0.75;;;0.50;;
43919;SDS011;29578;51.946;5.874;2022-08-21T10:43:28;0.75;;;0.50;;
43919;SDS011;29578;51.946;5.874;2022-08-21T10:46:19;2.17;;;0.60;;
43919;SDS011;29578;51.946;5.874;2022-08-21T10:49:16;0.90;;;0.50;;
43919;SDS011;29578;51.946;5.874;2022-08-21T10:52:41;0.60;;;0.60;;
43919;SDS011;29578;51.946;5.874;2022-08-21T10:57:51;0.75;;;0.60;;
43919;SDS011;29578;51.946;5.874;2022-08-21T11:00:23;1.05;;;0.60;;
43919;SDS011;29578;51.946;5.874;2022-08-21T11:03:01;0.52;;;0.50;;
43919;SDS011;29578;51.946;5.874;2022-08-21T11:05:55;1.27;;;0.60;;
43919;SDS011;29578;51.946;5.874;2022-08-21T11:08:29;1.25;;;0.50;;
43919;SDS011;29578;51.946;5.874;2022-08-21T11:11:01;1.65;;;0.50;;
43919;SDS011;29578;51.946;5.874;2022-08-21T11:13:37;3.53;;;0.70;;
43919;SDS011;29578;51.946;5.874;2022-08-21T11:16:28;0.80;;;0.43;;
43919;SDS011;29578;51.946;5.874;2022-08-21T11:19:06;0.70;;;0.45;;
43919;SDS011;29578;51.946;5.874;2022-08-21T11:21:50;0.88;;;0.50;;
43919;SDS011;29578;51.946;5.874;2022-08-21T11:29:52;1.95;;;0.50;;
43919;SDS011;29578;51.946;5.874;2022-08-21T11:35:27;1.08;;;0.50;;
43919;SDS011;29578;51.946;5.874;2022-08-21T11:38:06;0.80;;;0.50;;
43919;SDS011;29578;51.946;5.874;2022-08-21T11:40:54;1.20;;;0.60;;
43919;SDS011;29578;51.946;5.874;2022-08-21T11:43:45;0.55;;;0.45;;
43919;SDS011;29578;51.946;5.874;2022-08-21T11:46:25;0.50;;;0.40;;
43919;SDS011;29578;51.946;5.874;2022-08-21T11:54:52;0.52;;;0.47;;
43919;SDS011;29578;51.946;5.874;2022-08-21T11:57:25;1.30;;;0.30;;
43919;SDS011;29578;51.946;5.874;2022-08-21T12:00:05;0.40;;;0.40;;
43919;SDS011;29578;51.946;5.874;2022-08-21T12:02:41;0.65;;;0.30;;
43919;SDS011;29578;51.946;5.874;2022-08-21T12:05:20;1.02;;;0.50;;
43919;SDS011;29578;51.946;5.874;2022-08-21T12:07:59;1.40;;;0.40;;
43919;SDS011;29578;51.946;5.874;2022-08-21T12:10:58;2.38;;;0.60;;
43919;SDS011;29578;51.946;5.874;2022-08-21T12:13:26;0.47;;;0.40;;
43919;SDS011;29578;51.946;5.874;2022-08-21T12:18:36;1.00;;;0.50;;
43919;SDS011;29578;51.946;5.874;2022-08-21T12:21:05;0.70;;;0.50;;
43919;SDS011;29578;51.946;5.874;2022-08-21T12:23:59;0.52;;;0.50;;
43919;SDS011;29578;51.946;5.874;2022-08-21T12:26:30;1.65;;;0.57;;
43919;SDS011;29578;51.946;5.874;2022-08-21T12:29:07;2.13;;;0.60;;
43919;SDS011;29578;51.946;5.874;2022-08-21T12:31:47;0.40;;;0.40;;
43919;SDS011;29578;51.946;5.874;2022-08-21T12:34:17;0.20;;;0.20;;
43919;SDS011;29578;51.946;5.874;2022-08-21T12:36:48;0.40;;;0.40;;
43919;SDS011;29578;51.946;5.874;2022-08-21T12:39:22;1.10;;;0.45;;
43919;SDS011;29578;51.946;5.874;2022-08-21T12:41:54;1.15;;;0.50;;
43919;SDS011;29578;51.946;5.874;2022-08-21T12:44:28;0.40;;;0.40;;
43919;SDS011;29578;51.946;5.874;2022-08-21T12:49:54;0.40;;;0.40;;
43919;SDS011;29578;51.946;5.874;2022-08-21T12:52:33;0.50;;;0.47;;
43919;SDS011;29578;51.946;5.874;2022-08-21T12:55:01;0.47;;;0.43;;
43919;SDS011;29578;51.946;5.874;2022-08-21T12:57:29;0.30;;;0.30;;
43919;SDS011;29578;51.946;5.874;2022-08-21T12:59:57;0.75;;;0.50;;
43919;SDS011;29578;51.946;5.874;2022-08-21T13:02:28;2.35;;;0.55;;
43919;SDS011;29578;51.946;5.874;2022-08-21T13:04:57;1.30;;;0.50;;
43919;SDS011;29578;51.946;5.874;2022-08-21T13:07:29;0.40;;;0.40;;
43919;SDS011;29578;51.946;5.874;2022-08-21T13:10:06;0.45;;;0.40;;
43919;SDS011;29578;51.946;5.874;2022-08-21T13:12:41;0.35;;;0.30;;
43919;SDS011;29578;51.946;5.874;2022-08-21T13:15:07;1.38;;;0.50;;
43919;SDS011;29578;51.946;5.874;2022-08-21T13:17:35;0.40;;;0.40;;
43919;SDS011;29578;51.946;5.874;2022-08-21T13:22:39;0.80;;;0.30;;
43919;SDS011;29578;51.946;5.874;2022-08-21T13:25:11;0.40;;;0.40;;
43919;SDS011;29578;51.946;5.874;2022-08-21T13:27:38;0.52;;;0.50;;
43919;SDS011;29578;51.946;5.874;2022-08-21T13:30:07;0.63;;;0.40;;
43919;SDS011;29578;51.946;5.874;2022-08-21T13:32:38;0.95;;;0.50;;
43919;SDS011;29578;51.946;5.874;2022-08-21T13:35:25;0.85;;;0.50;;
43919;SDS011;29578;51.946;5.874;2022-08-21T13:37:54;0.47;;;0.47;;
43919;SDS011;29578;51.946;5.874;2022-08-21T13:40:24;2.47;;;0.60;;
43919;SDS011;29578;51.946;5.874;2022-08-21T13:42:53;0.40;;;0.40;;
43919;SDS011;29578;51.946;5.874;2022-08-21T13:45:29;0.43;;;0.43;;
43919;SDS011;29578;51.946;5.874;2022-08-21T13:47:57;0.38;;;0.35;;
43919;SDS011;29578;51.946;5.874;2022-08-21T13:50:26;0.68;;;0.60;;
43919;SDS011;29578;51.946;5.874;2022-08-21T13:53:18;0.30;;;0.30;;
43919;SDS011;29578;51.946;5.874;2022-08-21T13:55:53;0.40;;;0.40;;
43919;SDS011;29578;51.946;5.874;2022-08-21T14:01:17;1.25;;;0.60;;
43919;SDS011;29578;51.946;5.874;2022-08-21T14:03:47;0.40;;;0.35;;
43919;SDS011;29578;51.946;5.874;2022-08-21T14:06:17;1.10;;;0.60;;
43919;SDS011;29578;51.946;5.874;2022-08-21T14:08:48;0.30;;;0.30;;
43919;SDS011;29578;51.946;5.874;2022-08-21T14:11:24;0.40;;;0.40;;
43919;SDS011;29578;51.946;5.874;2022-08-21T14:13:56;0.40;;;0.40;;
43919;SDS011;29578;51.946;5.874;2022-08-21T14:16:27;1.10;;;0.50;;
43919;SDS011;29578;51.946;5.874;2022-08-21T14:21:44;0.50;;;0.50;;
43919;SDS011;29578;51.946;5.874;2022-08-21T14:24:13;0.32;;;0.30;;
43919;SDS011;29578;51.946;5.874;2022-08-21T14:26:53;0.63;;;0.47;;
43919;SDS011;29578;51.946;5.874;2022-08-21T14:29:27;0.75;;;0.50;;
43919;SDS011;29578;51.946;5.874;2022-08-21T14:31:59;0.75;;;0.55;;
43919;SDS011;29578;51.946;5.874;2022-08-21T14:34:33;0.82;;;0.50;;
43919;SDS011;29578;51.946;5.874;2022-08-21T14:36:59;0.30;;;0.30;;
43919;SDS011;29578;51.946;5.874;2022-08-21T14:39:24;1.00;;;0.50;;
43919;SDS011;29578;51.946;5.874;2022-08-21T14:41:50;0.70;;;0.50;;
43919;SDS011;29578;51.946;5.874;2022-08-21T14:44:17;0.30;;;0.30;;
43919;SDS011;29578;51.946;5.874;2022-08-21T14:46:44;0.57;;;0.43;;
43919;SDS011;29578;51.946;5.874;2022-08-21T14:49:11;0.40;;;0.40;;
43919;SDS011;29578;51.946;5.874;2022-08-21T14:51:37;0.40;;;0.40;;
43919;SDS011;29578;51.946;5.874;2022-08-21T14:54:04;1.00;;;0.50;;
43919;SDS011;29578;51.946;5.874;2022-08-21T14:56:31;0.50;;;0.40;;
43919;SDS011;29578;51.946;5.874;2022-08-21T14:58:59;1.48;;;0.52;;
43919;SDS011;29578;51.946;5.874;2022-08-21T15:01:28;0.40;;;0.40;;
43919;SDS011;29578;51.946;5.874;2022-08-21T15:03:54;0.57;;;0.43;;
43919;SDS011;29578;51.946;5.874;2022-08-21T15:06:20;1.42;;;0.60;;
43919;SDS011;29578;51.946;5.874;2022-08-21T15:08:46;0.65;;;0.50;;
43919;SDS011;29578;51.946;5.874;2022-08-21T15:11:15;1.20;;;0.47;;
43919;SDS011;29578;51.946;5.874;2022-08-21T15:13:43;0.35;;;0.35;;
43919;SDS011;29578;51.946;5.874;2022-08-21T15:16:09;0.50;;;0.50;;
43919;SDS011;29578;51.946;5.874;2022-08-21T15:18:37;0.40;;;0.40;;
43919;SDS011;29578;51.946;5.874;2022-08-21T15:21:03;1.38;;;0.40;;
43919;SDS011;29578;51.946;5.874;2022-08-21T15:23:29;0.73;;;0.65;;
43919;SDS011;29578;51.946;5.874;2022-08-21T15:25:55;0.95;;;0.60;;
43919;SDS011;29578;51.946;5.874;2022-08-21T15:28:23;0.85;;;0.45;;
43919;SDS011;29578;51.946;5.874;2022-08-21T15:30:49;0.30;;;0.30;;
43919;SDS011;29578;51.946;5.874;2022-08-21T15:33:15;1.17;;;0.65;;
43919;SDS011;29578;51.946;5.874;2022-08-21T15:35:41;0.50;;;0.50;;
43919;SDS011;29578;51.946;5.874;2022-08-21T15:38:07;0.40;;;0.40;;
43919;SDS011;29578;51.946;5.874;2022-08-21T15:40:33;0.32;;;0.32;;
43919;SDS011;29578;51.946;5.874;2022-08-21T15:43:01;0.52;;;0.45;;
43919;SDS011;29578;51.946;5.874;2022-08-21T15:45:28;0.70;;;0.45;;
43919;SDS011;29578;51.946;5.874;2022-08-21T15:47:55;0.50;;;0.50;;
43919;SDS011;29578;51.946;5.874;2022-08-21T15:50:21;0.32;;;0.30;;
43919;SDS011;29578;51.946;5.874;2022-08-21T15:52:48;0.73;;;0.40;;